sensor_id;sensor_type;location;lat;lon;timestamp;P1;durP1;ratioP1;P2;durP2;ratioP2
6547;SDS011;3307;52.416;16.862;2022-10-16T00:01:29;34.50;;;28.27;;
6547;SDS011;3307;52.416;16.862;2022-10-16T00:03:56;33.13;;;27.65;;
6547;SDS011;3307;52.416;16.862;2022-10-16T00:06:25;34.47;;;25.50;;
6547;SDS011;3307;52.416;16.862;2022-10-16T00:08:51;29.90;;;25.30;;
6547;SDS011;3307;52.416;16.862;2022-10-16T00:11:18;30.43;;;25.80;;
6547;SDS011;3307;52.416;16.862;2022-10-16T00:13:45;35.75;;;25.17;;
6547;SDS011;3307;52.416;16.862;2022-10-16T00:16:12;29.45;;;23.95;;
6547;SDS011;3307;52.416;16.862;2022-10-16T00:18:38;27.93;;;23.77;;
6547;SDS011;3307;52.416;16.862;2022-10-16T00:21:04;28.93;;;24.03;;
6547;SDS011;3307;52.416;16.862;2022-10-16T00:23:44;30.83;;;24.80;;
6547;SDS011;3307;52.416;16.862;2022-10-16T00:26:11;28.67;;;24.10;;
6547;SDS011;3307;52.416;16.862;2022-10-16T00:28:38;26.65;;;23.52;;
6547;SDS011;3307;52.416;16.862;2022-10-16T00:31:08;27.17;;;22.70;;
6547;SDS011;3307;52.416;16.862;2022-10-16T00:33:36;27.30;;;22.70;;
6547;SDS011;3307;52.416;16.862;2022-10-16T00:36:02;26.42;;;20.45;;
6547;SDS011;3307;52.416;16.862;2022-10-16T00:38:28;23.90;;;21.30;;
6547;SDS011;3307;52.416;16.862;2022-10-16T00:40:54;25.50;;;21.20;;
6547;SDS011;3307;52.416;16.862;2022-10-16T00:43:37;26.27;;;21.77;;
6547;SDS011;3307;52.416;16.862;2022-10-16T00:46:40;23.05;;;19.60;;
6547;SDS011;3307;52.416;16.862;2022-10-16T00:51:43;22.17;;;19.80;;
6547;SDS011;3307;52.416;16.862;2022-10-16T00:54:11;22.95;;;20.50;;
6547;SDS011;3307;52.416;16.862;2022-10-16T00:56:45;22.40;;;19.95;;
6547;SDS011;3307;52.416;16.862;2022-10-16T00:59:14;23.20;;;19.57;;
6547;SDS011;3307;52.416;16.862;2022-10-16T01:01:41;25.00;;;20.67;;
6547;SDS011;3307;52.416;16.862;2022-10-16T01:04:07;24.70;;;20.60;;
6547;SDS011;3307;52.416;16.862;2022-10-16T01:09:35;21.02;;;18.75;;
6547;SDS011;3307;52.416;16.862;2022-10-16T01:12:08;20.45;;;18.27;;
6547;SDS011;3307;52.416;16.862;2022-10-16T01:17:23;21.08;;;18.75;;
6547;SDS011;3307;52.416;16.862;2022-10-16T01:23:14;23.77;;;19.10;;
6547;SDS011;3307;52.416;16.862;2022-10-16T01:28:14;21.08;;;18.35;;
6547;SDS011;3307;52.416;16.862;2022-10-16T01:30:41;23.00;;;18.83;;
6547;SDS011;3307;52.416;16.862;2022-10-16T01:38:09;18.70;;;16.70;;
6547;SDS011;3307;52.416;16.862;2022-10-16T01:40:48;19.00;;;17.00;;
6547;SDS011;3307;52.416;16.862;2022-10-16T01:43:22;20.48;;;17.15;;
6547;SDS011;3307;52.416;16.862;2022-10-16T01:45:51;21.58;;;19.17;;
6547;SDS011;3307;52.416;16.862;2022-10-16T01:48:18;19.33;;;17.33;;
6547;SDS011;3307;52.416;16.862;2022-10-16T01:50:48;21.27;;;18.75;;
6547;SDS011;3307;52.416;16.862;2022-10-16T01:53:21;20.98;;;17.70;;
6547;SDS011;3307;52.416;16.862;2022-10-16T01:55:47;20.63;;;18.17;;
6547;SDS011;3307;52.416;16.862;2022-10-16T01:58:14;16.88;;;15.07;;
6547;SDS011;3307;52.416;16.862;2022-10-16T02:00:41;19.38;;;16.45;;
6547;SDS011;3307;52.416;16.862;2022-10-16T02:03:08;19.58;;;17.30;;
6547;SDS011;3307;52.416;16.862;2022-10-16T02:05:42;20.88;;;18.67;;
6547;SDS011;3307;52.416;16.862;2022-10-16T02:08:10;20.48;;;18.23;;
6547;SDS011;3307;52.416;16.862;2022-10-16T02:10:36;20.37;;;18.13;;
6547;SDS011;3307;52.416;16.862;2022-10-16T02:13:17;17.08;;;15.27;;
6547;SDS011;3307;52.416;16.862;2022-10-16T02:15:46;19.50;;;17.40;;
6547;SDS011;3307;52.416;16.862;2022-10-16T02:18:11;18.40;;;16.43;;
6547;SDS011;3307;52.416;16.862;2022-10-16T02:20:44;18.40;;;16.43;;
6547;SDS011;3307;52.416;16.862;2022-10-16T02:23:19;19.20;;;17.10;;
6547;SDS011;3307;52.416;16.862;2022-10-16T02:25:54;18.95;;;15.30;;
6547;SDS011;3307;52.416;16.862;2022-10-16T02:28:26;19.42;;;17.35;;
6547;SDS011;3307;52.416;16.862;2022-10-16T02:30:58;20.05;;;17.40;;
6547;SDS011;3307;52.416;16.862;2022-10-16T02:33:26;18.50;;;16.63;;
6547;SDS011;3307;52.416;16.862;2022-10-16T02:35:54;19.67;;;16.92;;
6547;SDS011;3307;52.416;16.862;2022-10-16T02:38:20;18.10;;;16.30;;
6547;SDS011;3307;52.416;16.862;2022-10-16T02:40:46;18.70;;;16.73;;
6547;SDS011;3307;52.416;16.862;2022-10-16T02:43:12;20.23;;;18.03;;
6547;SDS011;3307;52.416;16.862;2022-10-16T02:45:37;21.20;;;17.70;;
6547;SDS011;3307;52.416;16.862;2022-10-16T02:48:03;21.53;;;18.43;;
6547;SDS011;3307;52.416;16.862;2022-10-16T02:50:28;19.80;;;16.70;;
6547;SDS011;3307;52.416;16.862;2022-10-16T02:52:54;21.27;;;18.40;;
6547;SDS011;3307;52.416;16.862;2022-10-16T02:55:19;21.17;;;17.60;;
6547;SDS011;3307;52.416;16.862;2022-10-16T02:57:44;19.47;;;16.73;;
6547;SDS011;3307;52.416;16.862;2022-10-16T03:00:11;19.00;;;16.97;;
6547;SDS011;3307;52.416;16.862;2022-10-16T03:02:38;20.80;;;17.63;;
6547;SDS011;3307;52.416;16.862;2022-10-16T03:05:04;22.00;;;18.13;;
6547;SDS011;3307;52.416;16.862;2022-10-16T03:07:29;19.15;;;17.13;;
6547;SDS011;3307;52.416;16.862;2022-10-16T03:09:55;21.40;;;18.80;;
6547;SDS011;3307;52.416;16.862;2022-10-16T03:12:20;20.13;;;17.83;;
6547;SDS011;3307;52.416;16.862;2022-10-16T03:14:46;20.43;;;18.23;;
6547;SDS011;3307;52.416;16.862;2022-10-16T03:17:12;21.37;;;18.20;;
6547;SDS011;3307;52.416;16.862;2022-10-16T03:19:38;22.20;;;19.00;;
6547;SDS011;3307;52.416;16.862;2022-10-16T03:22:03;21.43;;;19.13;;
6547;SDS011;3307;52.416;16.862;2022-10-16T03:24:28;24.33;;;20.03;;
6547;SDS011;3307;52.416;16.862;2022-10-16T03:26:54;20.93;;;18.37;;
6547;SDS011;3307;52.416;16.862;2022-10-16T03:29:19;20.13;;;17.93;;
6547;SDS011;3307;52.416;16.862;2022-10-16T03:31:45;22.60;;;20.20;;
6547;SDS011;3307;52.416;16.862;2022-10-16T03:34:10;21.63;;;18.33;;
6547;SDS011;3307;52.416;16.862;2022-10-16T03:36:35;23.70;;;19.40;;
6547;SDS011;3307;52.416;16.862;2022-10-16T03:39:01;22.47;;;18.87;;
6547;SDS011;3307;52.416;16.862;2022-10-16T03:41:26;25.13;;;19.27;;
6547;SDS011;3307;52.416;16.862;2022-10-16T03:43:52;20.97;;;18.23;;
6547;SDS011;3307;52.416;16.862;2022-10-16T03:46:17;25.80;;;20.37;;
6547;SDS011;3307;52.416;16.862;2022-10-16T03:48:42;25.20;;;19.40;;
6547;SDS011;3307;52.416;16.862;2022-10-16T03:51:08;21.23;;;18.90;;
6547;SDS011;3307;52.416;16.862;2022-10-16T03:53:33;21.67;;;19.37;;
6547;SDS011;3307;52.416;16.862;2022-10-16T03:55:59;23.67;;;19.73;;
6547;SDS011;3307;52.416;16.862;2022-10-16T03:58:24;23.47;;;19.30;;
6547;SDS011;3307;52.416;16.862;2022-10-16T04:00:50;21.20;;;18.47;;
6547;SDS011;3307;52.416;16.862;2022-10-16T04:03:15;20.90;;;18.73;;
6547;SDS011;3307;52.416;16.862;2022-10-16T04:05:42;20.63;;;17.30;;
6547;SDS011;3307;52.416;16.862;2022-10-16T04:08:07;20.80;;;18.13;;
6547;SDS011;3307;52.416;16.862;2022-10-16T04:10:33;22.30;;;18.63;;
6547;SDS011;3307;52.416;16.862;2022-10-16T04:12:58;22.60;;;18.97;;
6547;SDS011;3307;52.416;16.862;2022-10-16T04:15:24;24.30;;;18.33;;
6547;SDS011;3307;52.416;16.862;2022-10-16T04:17:49;22.97;;;19.50;;
6547;SDS011;3307;52.416;16.862;2022-10-16T04:20:15;22.97;;;19.53;;
6547;SDS011;3307;52.416;16.862;2022-10-16T04:22:41;23.80;;;19.70;;
6547;SDS011;3307;52.416;16.862;2022-10-16T04:25:06;20.83;;;18.67;;
6547;SDS011;3307;52.416;16.862;2022-10-16T04:27:32;22.63;;;18.93;;
6547;SDS011;3307;52.416;16.862;2022-10-16T04:29:58;26.20;;;20.50;;
6547;SDS011;3307;52.416;16.862;2022-10-16T04:32:24;22.85;;;20.30;;
6547;SDS011;3307;52.416;16.862;2022-10-16T04:34:53;21.93;;;19.17;;
6547;SDS011;3307;52.416;16.862;2022-10-16T04:37:18;23.38;;;20.88;;
6547;SDS011;3307;52.416;16.862;2022-10-16T04:39:44;20.97;;;18.73;;
6547;SDS011;3307;52.416;16.862;2022-10-16T04:42:10;24.03;;;20.00;;
6547;SDS011;3307;52.416;16.862;2022-10-16T04:44:35;23.00;;;18.83;;
6547;SDS011;3307;52.416;16.862;2022-10-16T04:47:01;22.50;;;19.50;;
6547;SDS011;3307;52.416;16.862;2022-10-16T04:49:26;22.03;;;17.60;;
6547;SDS011;3307;52.416;16.862;2022-10-16T04:51:52;21.80;;;19.23;;
6547;SDS011;3307;52.416;16.862;2022-10-16T04:54:17;22.97;;;20.33;;
6547;SDS011;3307;52.416;16.862;2022-10-16T04:56:42;21.77;;;18.87;;
6547;SDS011;3307;52.416;16.862;2022-10-16T04:59:12;25.92;;;20.23;;
6547;SDS011;3307;52.416;16.862;2022-10-16T05:01:41;26.83;;;20.58;;
6547;SDS011;3307;52.416;16.862;2022-10-16T05:04:06;27.20;;;20.90;;
6547;SDS011;3307;52.416;16.862;2022-10-16T05:06:32;22.90;;;19.13;;
6547;SDS011;3307;52.416;16.862;2022-10-16T05:08:57;25.17;;;20.50;;
6547;SDS011;3307;52.416;16.862;2022-10-16T05:11:23;24.43;;;21.07;;
6547;SDS011;3307;52.416;16.862;2022-10-16T05:13:48;24.03;;;20.80;;
6547;SDS011;3307;52.416;16.862;2022-10-16T05:16:13;22.70;;;19.03;;
6547;SDS011;3307;52.416;16.862;2022-10-16T05:18:39;25.00;;;21.03;;
6547;SDS011;3307;52.416;16.862;2022-10-16T05:21:04;24.37;;;19.50;;
6547;SDS011;3307;52.416;16.862;2022-10-16T05:23:31;22.20;;;19.00;;
6547;SDS011;3307;52.416;16.862;2022-10-16T05:25:57;25.60;;;21.10;;
6547;SDS011;3307;52.416;16.862;2022-10-16T05:28:23;21.63;;;19.33;;
6547;SDS011;3307;52.416;16.862;2022-10-16T05:30:49;22.38;;;18.70;;
6547;SDS011;3307;52.416;16.862;2022-10-16T05:33:15;24.77;;;20.40;;
6547;SDS011;3307;52.416;16.862;2022-10-16T05:35:40;21.30;;;19.03;;
6547;SDS011;3307;52.416;16.862;2022-10-16T05:38:05;21.87;;;19.30;;
6547;SDS011;3307;52.416;16.862;2022-10-16T05:40:31;20.10;;;17.90;;
6547;SDS011;3307;52.416;16.862;2022-10-16T05:42:56;22.27;;;19.93;;
6547;SDS011;3307;52.416;16.862;2022-10-16T05:45:22;23.20;;;18.73;;
6547;SDS011;3307;52.416;16.862;2022-10-16T05:47:47;25.80;;;19.97;;
6547;SDS011;3307;52.416;16.862;2022-10-16T05:50:12;23.53;;;20.33;;
6547;SDS011;3307;52.416;16.862;2022-10-16T05:52:38;23.60;;;19.70;;
6547;SDS011;3307;52.416;16.862;2022-10-16T05:55:04;21.27;;;18.97;;
6547;SDS011;3307;52.416;16.862;2022-10-16T05:57:30;23.13;;;20.73;;
6547;SDS011;3307;52.416;16.862;2022-10-16T05:59:55;24.43;;;21.47;;
6547;SDS011;3307;52.416;16.862;2022-10-16T06:02:21;23.70;;;20.93;;
6547;SDS011;3307;52.416;16.862;2022-10-16T06:04:46;23.70;;;21.00;;
6547;SDS011;3307;52.416;16.862;2022-10-16T06:07:12;25.43;;;21.60;;
6547;SDS011;3307;52.416;16.862;2022-10-16T06:09:37;24.73;;;21.80;;
6547;SDS011;3307;52.416;16.862;2022-10-16T06:12:02;25.83;;;23.03;;
6547;SDS011;3307;52.416;16.862;2022-10-16T06:14:28;25.40;;;22.57;;
6547;SDS011;3307;52.416;16.862;2022-10-16T06:16:53;24.80;;;22.10;;
6547;SDS011;3307;52.416;16.862;2022-10-16T06:19:19;24.80;;;21.47;;
6547;SDS011;3307;52.416;16.862;2022-10-16T06:21:44;25.97;;;22.20;;
6547;SDS011;3307;52.416;16.862;2022-10-16T06:24:10;25.83;;;22.60;;
6547;SDS011;3307;52.416;16.862;2022-10-16T06:26:35;25.53;;;22.80;;
6547;SDS011;3307;52.416;16.862;2022-10-16T06:29:01;25.40;;;22.70;;
6547;SDS011;3307;52.416;16.862;2022-10-16T06:31:27;25.47;;;22.60;;
6547;SDS011;3307;52.416;16.862;2022-10-16T06:33:55;25.33;;;21.20;;
6547;SDS011;3307;52.416;16.862;2022-10-16T06:36:21;26.55;;;23.55;;
6547;SDS011;3307;52.416;16.862;2022-10-16T06:38:47;26.70;;;22.38;;
6547;SDS011;3307;52.416;16.862;2022-10-16T06:41:14;29.10;;;23.30;;
6547;SDS011;3307;52.416;16.862;2022-10-16T06:43:41;25.42;;;22.60;;
6547;SDS011;3307;52.416;16.862;2022-10-16T06:46:09;23.33;;;20.97;;
6547;SDS011;3307;52.416;16.862;2022-10-16T06:48:35;27.75;;;23.00;;
6547;SDS011;3307;52.416;16.862;2022-10-16T06:51:02;23.83;;;21.23;;
6547;SDS011;3307;52.416;16.862;2022-10-16T06:53:29;24.30;;;21.70;;
6547;SDS011;3307;52.416;16.862;2022-10-16T06:55:56;22.77;;;20.38;;
6547;SDS011;3307;52.416;16.862;2022-10-16T06:58:22;21.97;;;19.27;;
6547;SDS011;3307;52.416;16.862;2022-10-16T07:00:48;23.53;;;21.00;;
6547;SDS011;3307;52.416;16.862;2022-10-16T07:03:13;21.93;;;19.60;;
6547;SDS011;3307;52.416;16.862;2022-10-16T07:05:40;23.13;;;19.73;;
6547;SDS011;3307;52.416;16.862;2022-10-16T07:08:08;21.65;;;19.48;;
6547;SDS011;3307;52.416;16.862;2022-10-16T07:10:34;22.47;;;19.93;;
6547;SDS011;3307;52.416;16.862;2022-10-16T07:12:59;25.30;;;18.97;;
6547;SDS011;3307;52.416;16.862;2022-10-16T07:15:25;21.60;;;19.30;;
6547;SDS011;3307;52.416;16.862;2022-10-16T07:17:51;21.45;;;19.13;;
6547;SDS011;3307;52.416;16.862;2022-10-16T07:20:17;19.23;;;17.33;;
6547;SDS011;3307;52.416;16.862;2022-10-16T07:22:42;19.90;;;17.90;;
6547;SDS011;3307;52.416;16.862;2022-10-16T07:25:08;20.90;;;18.70;;
6547;SDS011;3307;52.416;16.862;2022-10-16T07:27:33;18.20;;;16.47;;
6547;SDS011;3307;52.416;16.862;2022-10-16T07:29:59;19.20;;;17.20;;
6547;SDS011;3307;52.416;16.862;2022-10-16T07:32:24;18.77;;;16.97;;
6547;SDS011;3307;52.416;16.862;2022-10-16T07:34:50;19.03;;;17.20;;
6547;SDS011;3307;52.416;16.862;2022-10-16T07:37:16;19.47;;;17.03;;
6547;SDS011;3307;52.416;16.862;2022-10-16T07:39:42;18.90;;;16.90;;
6547;SDS011;3307;52.416;16.862;2022-10-16T07:42:07;19.03;;;17.07;;
6547;SDS011;3307;52.416;16.862;2022-10-16T07:44:32;21.97;;;18.50;;
6547;SDS011;3307;52.416;16.862;2022-10-16T07:46:58;18.47;;;16.63;;
6547;SDS011;3307;52.416;16.862;2022-10-16T07:49:24;19.70;;;17.53;;
6547;SDS011;3307;52.416;16.862;2022-10-16T07:51:49;19.50;;;17.50;;
6547;SDS011;3307;52.416;16.862;2022-10-16T07:54:15;18.70;;;16.80;;
6547;SDS011;3307;52.416;16.862;2022-10-16T07:56:40;20.30;;;18.17;;
6547;SDS011;3307;52.416;16.862;2022-10-16T07:59:05;19.47;;;17.53;;
6547;SDS011;3307;52.416;16.862;2022-10-16T08:01:31;18.70;;;16.70;;
6547;SDS011;3307;52.416;16.862;2022-10-16T08:03:56;20.47;;;18.37;;
6547;SDS011;3307;52.416;16.862;2022-10-16T08:06:22;18.67;;;16.80;;
6547;SDS011;3307;52.416;16.862;2022-10-16T08:08:47;20.90;;;18.90;;
6547;SDS011;3307;52.416;16.862;2022-10-16T08:11:13;19.23;;;17.30;;
6547;SDS011;3307;52.416;16.862;2022-10-16T08:13:39;18.35;;;16.58;;
6547;SDS011;3307;52.416;16.862;2022-10-16T08:16:05;19.57;;;17.57;;
6547;SDS011;3307;52.416;16.862;2022-10-16T08:18:33;17.33;;;15.57;;
6547;SDS011;3307;52.416;16.862;2022-10-16T08:21:00;19.10;;;17.30;;
6547;SDS011;3307;52.416;16.862;2022-10-16T08:23:26;17.43;;;15.83;;
6547;SDS011;3307;52.416;16.862;2022-10-16T08:25:55;16.47;;;14.97;;
6547;SDS011;3307;52.416;16.862;2022-10-16T08:28:21;16.93;;;15.27;;
6547;SDS011;3307;52.416;16.862;2022-10-16T08:30:47;15.17;;;13.87;;
6547;SDS011;3307;52.416;16.862;2022-10-16T08:33:13;17.27;;;15.57;;
6547;SDS011;3307;52.416;16.862;2022-10-16T08:35:38;16.70;;;15.10;;
6547;SDS011;3307;52.416;16.862;2022-10-16T08:38:04;16.40;;;14.87;;
6547;SDS011;3307;52.416;16.862;2022-10-16T08:40:30;15.10;;;13.60;;
6547;SDS011;3307;52.416;16.862;2022-10-16T08:51:11;13.93;;;12.73;;
6547;SDS011;3307;52.416;16.862;2022-10-16T08:53:49;13.77;;;12.47;;
6547;SDS011;3307;52.416;16.862;2022-10-16T08:56:17;13.90;;;12.67;;
6547;SDS011;3307;52.416;16.862;2022-10-16T08:58:43;13.83;;;12.53;;
6547;SDS011;3307;52.416;16.862;2022-10-16T09:01:14;13.53;;;12.30;;
6547;SDS011;3307;52.416;16.862;2022-10-16T09:03:58;11.80;;;10.83;;
6547;SDS011;3307;52.416;16.862;2022-10-16T09:09:25;11.60;;;10.50;;
6547;SDS011;3307;52.416;16.862;2022-10-16T09:12:10;12.10;;;10.83;;
6547;SDS011;3307;52.416;16.862;2022-10-16T09:17:37;13.17;;;11.77;;
6547;SDS011;3307;52.416;16.862;2022-10-16T09:20:16;11.97;;;10.80;;
6547;SDS011;3307;52.416;16.862;2022-10-16T09:22:43;11.73;;;10.63;;
6547;SDS011;3307;52.416;16.862;2022-10-16T09:25:15;12.97;;;11.80;;
6547;SDS011;3307;52.416;16.862;2022-10-16T09:27:44;13.10;;;11.80;;
6547;SDS011;3307;52.416;16.862;2022-10-16T09:30:12;11.17;;;10.17;;
6547;SDS011;3307;52.416;16.862;2022-10-16T09:32:38;12.60;;;11.40;;
6547;SDS011;3307;52.416;16.862;2022-10-16T09:35:04;12.13;;;11.03;;
6547;SDS011;3307;52.416;16.862;2022-10-16T09:37:36;12.33;;;11.13;;
6547;SDS011;3307;52.416;16.862;2022-10-16T09:40:02;11.20;;;10.07;;
6547;SDS011;3307;52.416;16.862;2022-10-16T09:42:30;11.10;;;10.10;;
6547;SDS011;3307;52.416;16.862;2022-10-16T09:44:56;11.70;;;10.60;;
6547;SDS011;3307;52.416;16.862;2022-10-16T09:47:23;11.30;;;10.20;;
6547;SDS011;3307;52.416;16.862;2022-10-16T09:49:58;10.80;;;9.73;;
6547;SDS011;3307;52.416;16.862;2022-10-16T09:52:31;10.60;;;9.60;;
6547;SDS011;3307;52.416;16.862;2022-10-16T09:54:58;10.57;;;9.63;;
6547;SDS011;3307;52.416;16.862;2022-10-16T09:57:28;10.27;;;9.27;;
6547;SDS011;3307;52.416;16.862;2022-10-16T09:59:55;10.27;;;9.37;;
6547;SDS011;3307;52.416;16.862;2022-10-16T10:02:33;10.27;;;9.20;;
6547;SDS011;3307;52.416;16.862;2022-10-16T10:05:00;9.73;;;8.80;;
6547;SDS011;3307;52.416;16.862;2022-10-16T10:07:27;9.60;;;8.70;;
6547;SDS011;3307;52.416;16.862;2022-10-16T10:09:57;10.27;;;9.37;;
6547;SDS011;3307;52.416;16.862;2022-10-16T10:12:26;11.10;;;10.00;;
6547;SDS011;3307;52.416;16.862;2022-10-16T10:14:53;10.10;;;9.30;;
6547;SDS011;3307;52.416;16.862;2022-10-16T10:17:24;9.47;;;8.53;;
6547;SDS011;3307;52.416;16.862;2022-10-16T10:19:58;10.20;;;9.30;;
6547;SDS011;3307;52.416;16.862;2022-10-16T10:27:56;10.50;;;9.50;;
6547;SDS011;3307;52.416;16.862;2022-10-16T10:33:07;9.87;;;8.87;;
6547;SDS011;3307;52.416;16.862;2022-10-16T10:40:52;9.63;;;8.90;;
6547;SDS011;3307;52.416;16.862;2022-10-16T10:46:55;10.40;;;9.50;;
6547;SDS011;3307;52.416;16.862;2022-10-16T10:57:51;9.40;;;8.20;;
6547;SDS011;3307;52.416;16.862;2022-10-16T11:00:36;9.40;;;8.53;;
6547;SDS011;3307;52.416;16.862;2022-10-16T11:05:56;9.10;;;8.30;;
6547;SDS011;3307;52.416;16.862;2022-10-16T11:08:35;9.40;;;8.70;;
6547;SDS011;3307;52.416;16.862;2022-10-16T11:11:05;8.00;;;7.23;;
6547;SDS011;3307;52.416;16.862;2022-10-16T11:16:42;7.27;;;6.67;;
6547;SDS011;3307;52.416;16.862;2022-10-16T11:19:26;7.33;;;6.80;;
6547;SDS011;3307;52.416;16.862;2022-10-16T11:22:09;6.70;;;6.17;;
6547;SDS011;3307;52.416;16.862;2022-10-16T11:24:59;6.83;;;6.33;;
6547;SDS011;3307;52.416;16.862;2022-10-16T11:30:23;7.63;;;7.03;;
6547;SDS011;3307;52.416;16.862;2022-10-16T11:41:19;6.87;;;6.27;;
6547;SDS011;3307;52.416;16.862;2022-10-16T11:43:50;5.80;;;5.30;;
6547;SDS011;3307;52.416;16.862;2022-10-16T11:46:19;5.60;;;5.10;;
6547;SDS011;3307;52.416;16.862;2022-10-16T11:51:59;5.50;;;5.00;;
6547;SDS011;3307;52.416;16.862;2022-10-16T11:54:28;7.70;;;6.10;;
6547;SDS011;3307;52.416;16.862;2022-10-16T11:56:59;6.60;;;6.10;;
6547;SDS011;3307;52.416;16.862;2022-10-16T11:59:30;6.17;;;5.67;;
6547;SDS011;3307;52.416;16.862;2022-10-16T12:04:40;5.73;;;5.30;;
6547;SDS011;3307;52.416;16.862;2022-10-16T12:07:14;5.63;;;5.23;;
6547;SDS011;3307;52.416;16.862;2022-10-16T12:09:44;6.20;;;5.70;;
6547;SDS011;3307;52.416;16.862;2022-10-16T12:12:26;7.33;;;5.60;;
6547;SDS011;3307;52.416;16.862;2022-10-16T12:15:02;6.27;;;5.73;;
6547;SDS011;3307;52.416;16.862;2022-10-16T12:17:43;7.03;;;6.43;;
6547;SDS011;3307;52.416;16.862;2022-10-16T12:22:59;5.50;;;5.10;;
6547;SDS011;3307;52.416;16.862;2022-10-16T12:25:25;5.20;;;4.80;;
6547;SDS011;3307;52.416;16.862;2022-10-16T12:28:03;8.70;;;5.10;;
6547;SDS011;3307;52.416;16.862;2022-10-16T12:30:34;5.40;;;4.90;;
6547;SDS011;3307;52.416;16.862;2022-10-16T12:33:04;5.10;;;4.70;;
6547;SDS011;3307;52.416;16.862;2022-10-16T12:35:34;5.40;;;5.00;;
6547;SDS011;3307;52.416;16.862;2022-10-16T12:38:18;4.77;;;4.40;;
6547;SDS011;3307;52.416;16.862;2022-10-16T12:43:26;4.70;;;4.30;;
6547;SDS011;3307;52.416;16.862;2022-10-16T12:48:34;5.37;;;4.37;;
6547;SDS011;3307;52.416;16.862;2022-10-16T12:53:45;4.00;;;3.70;;
6547;SDS011;3307;52.416;16.862;2022-10-16T12:56:22;4.33;;;3.97;;
6547;SDS011;3307;52.416;16.862;2022-10-16T13:04:16;4.33;;;3.93;;
6547;SDS011;3307;52.416;16.862;2022-10-16T13:06:48;4.83;;;4.43;;
6547;SDS011;3307;52.416;16.862;2022-10-16T13:15:24;5.80;;;5.33;;
6547;SDS011;3307;52.416;16.862;2022-10-16T13:18:03;6.60;;;4.70;;
6547;SDS011;3307;52.416;16.862;2022-10-16T13:23:11;6.20;;;5.00;;
6547;SDS011;3307;52.416;16.862;2022-10-16T13:28:30;5.80;;;5.40;;
6547;SDS011;3307;52.416;16.862;2022-10-16T13:30:58;5.40;;;4.90;;
6547;SDS011;3307;52.416;16.862;2022-10-16T13:35:59;5.13;;;4.73;;
6547;SDS011;3307;52.416;16.862;2022-10-16T13:38:25;5.30;;;4.80;;
6547;SDS011;3307;52.416;16.862;2022-10-16T13:43:37;7.37;;;6.70;;
6547;SDS011;3307;52.416;16.862;2022-10-16T13:46:06;6.27;;;5.77;;
6547;SDS011;3307;52.416;16.862;2022-10-16T13:48:35;6.30;;;5.23;;
6547;SDS011;3307;52.416;16.862;2022-10-16T13:51:02;5.30;;;4.80;;
6547;SDS011;3307;52.416;16.862;2022-10-16T13:53:30;6.00;;;5.40;;
6547;SDS011;3307;52.416;16.862;2022-10-16T13:55:57;6.10;;;5.60;;
6547;SDS011;3307;52.416;16.862;2022-10-16T13:58:22;5.90;;;5.40;;
6547;SDS011;3307;52.416;16.862;2022-10-16T14:01:23;8.40;;;5.37;;
6547;SDS011;3307;52.416;16.862;2022-10-16T14:03:43;5.70;;;5.30;;
6547;SDS011;3307;52.416;16.862;2022-10-16T14:06:13;5.83;;;5.33;;
6547;SDS011;3307;52.416;16.862;2022-10-16T14:09:00;8.43;;;6.03;;
6547;SDS011;3307;52.416;16.862;2022-10-16T14:11:32;6.60;;;6.00;;
6547;SDS011;3307;52.416;16.862;2022-10-16T14:13:58;6.23;;;5.73;;
6547;SDS011;3307;52.416;16.862;2022-10-16T14:16:25;6.27;;;5.67;;
6547;SDS011;3307;52.416;16.862;2022-10-16T14:18:55;6.53;;;5.83;;
6547;SDS011;3307;52.416;16.862;2022-10-16T14:21:22;5.73;;;5.20;;
6547;SDS011;3307;52.416;16.862;2022-10-16T14:23:48;6.10;;;5.60;;
6547;SDS011;3307;52.416;16.862;2022-10-16T14:26:14;6.27;;;5.67;;
6547;SDS011;3307;52.416;16.862;2022-10-16T14:28:42;6.03;;;5.50;;
6547;SDS011;3307;52.416;16.862;2022-10-16T14:33:44;6.33;;;5.73;;
6547;SDS011;3307;52.416;16.862;2022-10-16T14:38:35;7.47;;;6.77;;
6547;SDS011;3307;52.416;16.862;2022-10-16T14:41:03;5.87;;;5.27;;
6547;SDS011;3307;52.416;16.862;2022-10-16T14:45:58;5.53;;;5.13;;
6547;SDS011;3307;52.416;16.862;2022-10-16T14:48:23;5.57;;;5.17;;
6547;SDS011;3307;52.416;16.862;2022-10-16T14:50:49;5.03;;;4.70;;
6547;SDS011;3307;52.416;16.862;2022-10-16T14:53:15;7.80;;;5.37;;
6547;SDS011;3307;52.416;16.862;2022-10-16T14:55:41;5.70;;;5.20;;
6547;SDS011;3307;52.416;16.862;2022-10-16T14:58:16;5.70;;;5.30;;
6547;SDS011;3307;52.416;16.862;2022-10-16T15:00:43;5.17;;;4.47;;
6547;SDS011;3307;52.416;16.862;2022-10-16T15:03:08;4.27;;;3.87;;
6547;SDS011;3307;52.416;16.862;2022-10-16T15:05:34;3.80;;;3.50;;
6547;SDS011;3307;52.416;16.862;2022-10-16T15:07:59;4.20;;;3.80;;
6547;SDS011;3307;52.416;16.862;2022-10-16T15:10:25;3.90;;;3.60;;
6547;SDS011;3307;52.416;16.862;2022-10-16T15:12:52;3.43;;;3.23;;
6547;SDS011;3307;52.416;16.862;2022-10-16T15:15:26;4.30;;;3.53;;
6547;SDS011;3307;52.416;16.862;2022-10-16T15:17:56;4.10;;;3.80;;
6547;SDS011;3307;52.416;16.862;2022-10-16T15:20:26;4.30;;;3.90;;
6547;SDS011;3307;52.416;16.862;2022-10-16T15:22:52;6.03;;;5.43;;
6547;SDS011;3307;52.416;16.862;2022-10-16T15:28:04;4.77;;;4.40;;
6547;SDS011;3307;52.416;16.862;2022-10-16T15:30:30;5.23;;;4.83;;
6547;SDS011;3307;52.416;16.862;2022-10-16T15:32:56;5.33;;;4.83;;
6547;SDS011;3307;52.416;16.862;2022-10-16T15:35:21;5.83;;;5.20;;
6547;SDS011;3307;52.416;16.862;2022-10-16T15:37:47;6.07;;;5.50;;
6547;SDS011;3307;52.416;16.862;2022-10-16T15:40:13;6.20;;;5.70;;
6547;SDS011;3307;52.416;16.862;2022-10-16T15:42:39;6.27;;;5.37;;
6547;SDS011;3307;52.416;16.862;2022-10-16T15:45:05;7.97;;;7.17;;
6547;SDS011;3307;52.416;16.862;2022-10-16T15:47:31;8.67;;;7.00;;
6547;SDS011;3307;52.416;16.862;2022-10-16T15:49:57;8.03;;;7.33;;
6547;SDS011;3307;52.416;16.862;2022-10-16T15:52:22;11.43;;;7.83;;
6547;SDS011;3307;52.416;16.862;2022-10-16T15:54:48;10.27;;;8.93;;
6547;SDS011;3307;52.416;16.862;2022-10-16T15:57:13;8.70;;;7.60;;
6547;SDS011;3307;52.416;16.862;2022-10-16T15:59:39;9.67;;;8.17;;
6547;SDS011;3307;52.416;16.862;2022-10-16T16:02:04;9.40;;;7.50;;
6547;SDS011;3307;52.416;16.862;2022-10-16T16:04:30;8.23;;;7.43;;
6547;SDS011;3307;52.416;16.862;2022-10-16T16:06:56;7.30;;;6.70;;
6547;SDS011;3307;52.416;16.862;2022-10-16T16:09:21;8.20;;;7.50;;
6547;SDS011;3307;52.416;16.862;2022-10-16T16:11:46;8.07;;;7.30;;
6547;SDS011;3307;52.416;16.862;2022-10-16T16:14:12;8.00;;;7.23;;
6547;SDS011;3307;52.416;16.862;2022-10-16T16:16:38;8.00;;;7.30;;
6547;SDS011;3307;52.416;16.862;2022-10-16T16:19:04;14.80;;;9.97;;
6547;SDS011;3307;52.416;16.862;2022-10-16T16:21:31;8.53;;;7.73;;
6547;SDS011;3307;52.416;16.862;2022-10-16T16:23:56;10.40;;;9.40;;
6547;SDS011;3307;52.416;16.862;2022-10-16T16:26:26;9.53;;;8.57;;
6547;SDS011;3307;52.416;16.862;2022-10-16T16:28:53;11.13;;;9.97;;
6547;SDS011;3307;52.416;16.862;2022-10-16T16:31:19;12.15;;;10.95;;
6547;SDS011;3307;52.416;16.862;2022-10-16T16:33:46;13.85;;;12.45;;
6547;SDS011;3307;52.416;16.862;2022-10-16T16:36:11;16.17;;;13.63;;
6547;SDS011;3307;52.416;16.862;2022-10-16T16:38:37;18.77;;;15.20;;
6547;SDS011;3307;52.416;16.862;2022-10-16T16:43:37;18.90;;;16.90;;
6547;SDS011;3307;52.416;16.862;2022-10-16T16:46:02;19.13;;;17.20;;
6547;SDS011;3307;52.416;16.862;2022-10-16T16:48:28;17.37;;;15.57;;
6547;SDS011;3307;52.416;16.862;2022-10-16T16:50:54;18.40;;;16.53;;
6547;SDS011;3307;52.416;16.862;2022-10-16T16:53:19;20.93;;;18.80;;
6547;SDS011;3307;52.416;16.862;2022-10-16T16:55:44;17.17;;;15.57;;